Nina — ICMG — position and weather

sailwx.info

Track history (hours):
 
Tides and Currents Weather Stations Pressure Air Temp Water Temp Dewpoint Dewpoint Depression Visibility Wind Speed Wind Dir Waves Ship Positions

Nina

Last reported at 2017-Feb-28 02:31 UTC. Time now 2017-Feb-28 03:27 UTC.
Position N 49°28' E 000°33'.

Length 180 m; draft 10.4 m.

Type: Tanker. MMSI: 247239700.

Date/timePositionNaut miles runAvg speedWind from/ knotsBaromVisibWave heightAir tempDewpointWater temp
2017-Feb-28 02:31N 49°28' E 000°33'0 0.0
2017-Feb-28 01:31N 49°28' E 000°33'0 0.0
2017-Feb-28 00:31N 49°28' E 000°33'0 0.0
2017-Feb-27 23:31N 49°28' E 000°33'0 0.0
2017-Feb-27 22:31N 49°28' E 000°33'0 0.0
2017-Feb-27 21:31N 49°28' E 000°33'0 0.0
2017-Feb-27 20:31N 49°28' E 000°33'0 0.0
2017-Feb-27 19:31N 49°28' E 000°33'0 0.0
2017-Feb-27 18:31N 49°28' E 000°33'0 0.0
2017-Feb-27 17:31N 49°28' E 000°33'0 0.0
2017-Feb-27 16:31N 49°28' E 000°33'0 0.0
2017-Feb-27 15:31N 49°28' E 000°33'0 0.0
2017-Feb-27 14:31N 49°28' E 000°33'0 0.0
2017-Feb-27 13:28N 49°28' E 000°33'0 0.0
2017-Feb-27 12:31N 49°28' E 000°33'0 0.0
2017-Feb-27 11:31N 49°28' E 000°33'0 0.0
2017-Feb-27 10:31N 49°28' E 000°33'0 0.0
2017-Feb-27 09:31N 49°28' E 000°33'0 0.0
2017-Feb-27 08:31N 49°28' E 000°33'0 0.0
2017-Feb-27 07:31N 49°28' E 000°33'0 0.0
2017-Feb-27 06:16N 49°28' E 000°33'0 0.0
2017-Feb-27 05:31N 49°28' E 000°33'0 0.0
2017-Feb-27 04:31N 49°28' E 000°33'0 0.0
2017-Feb-27 03:31N 49°28' E 000°33'0 0.0
2017-Feb-27 02:31N 49°28' E 000°33'0 0.0
2017-Feb-27 01:31N 49°28' E 000°33'0 0.0
2017-Feb-27 00:31N 49°28' E 000°33'0 0.0
2017-Feb-26 23:31N 49°28' E 000°33'0 0.0
2017-Feb-26 22:34N 49°28' E 000°33'1 1.4
2017-Feb-26 21:34N 49°29' E 000°31'1211.9
2017-Feb-26 20:33N 49°26' E 000°14'1211.6
2017-Feb-26 19:33N 49°29' W 000°04'5 4.7
2017-Feb-26 18:33N 49°30' W 000°11'1313.4
2017-Feb-26 17:34N 49°36' W 000°29'1413.8
2017-Feb-26 16:33N 49°45' W 000°46'1111.2
2017-Feb-26 15:33N 49°52' W 000°59'1111.4
2017-Feb-26 14:33N 49°58' W 000°44'5 1.5
2017-Feb-26 11:34N 50°01' W 000°49'1211.4
2017-Feb-26 10:28N 50°08' W 000°33'1010.0
2017-Feb-26 09:27N 50°18' W 000°28'1010.7
2017-Feb-26 08:33N 50°23' W 000°16'1110.8
2017-Feb-26 07:33N 50°28' W 000°00'1111.4
2017-Feb-26 06:33N 50°31' E 000°17'1312.8
2017-Feb-26 05:34N 50°37' E 000°35'1413.5
2017-Feb-26 04:34N 50°45' E 000°52'1313.3
2017-Feb-26 03:33N 50°53' E 001°09'1212.4
2017-Feb-26 02:34N 51°02' E 001°22'1110.8
2017-Feb-26 01:34N 51°08' E 001°36'10 9.9
2017-Feb-26 00:34N 51°16' E 001°46'1110.9
2017-Feb-25 23:34N 51°26' E 001°54'1211.8
2017-Feb-25 22:34N 51°35' E 002°06'8612.2
2017-Feb-25 15:34N 52°31' E 003°51'1211.9
2017-Feb-25 14:33N 52°31' E 004°10'1211.6
2017-Feb-25 13:34N 52°28' E 004°29'5 4.6
2017-Feb-25 12:31N 52°28' E 004°37'5 5.5
2017-Feb-25 11:33N 52°26' E 004°45'4 3.6
2017-Feb-25 10:32N 52°25' E 004°50'0 0.0
2017-Feb-25 09:32N 52°25' E 004°50'0 0.0
2017-Feb-25 08:32N 52°25' E 004°50'0 0.0
2017-Feb-25 07:32N 52°25' E 004°50'0 0.0
2017-Feb-25 06:29N 52°25' E 004°50'0 0.0
2017-Feb-25 05:29N 52°25' E 004°50'0 0.0
2017-Feb-25 04:29N 52°25' E 004°50'0 0.0
2017-Feb-25 03:29N 52°25' E 004°50'0 0.0
2017-Feb-25 02:29N 52°25' E 004°50'0 0.0
2017-Feb-25 01:32N 52°25' E 004°50'0 0.0
2017-Feb-25 00:32N 52°25' E 004°50'0 0.0
2017-Feb-24 23:23N 52°25' E 004°50'0 0.0
2017-Feb-24 22:29N 52°25' E 004°50'0 0.0
2017-Feb-24 21:32N 52°25' E 004°50'0 0.0
2017-Feb-24 20:32N 52°25' E 004°50'0 0.0
2017-Feb-24 19:29N 52°25' E 004°50'0 0.0
2017-Feb-24 18:32N 52°25' E 004°50'0 0.0
2017-Feb-24 17:29N 52°25' E 004°50'0 0.0
2017-Feb-24 16:29N 52°25' E 004°50'0 0.0
2017-Feb-24 15:32N 52°25' E 004°50'0 0.0
2017-Feb-24 14:23N 52°25' E 004°50'0 0.0
2017-Feb-24 13:32N 52°25' E 004°50'0 0.0
2017-Feb-24 12:32N 52°25' E 004°50'0 0.0
2017-Feb-24 11:26N 52°25' E 004°50'0 0.0
2017-Feb-24 10:26N 52°25' E 004°50'0 0.0
2017-Feb-24 09:32N 52°25' E 004°50'0 0.0
2017-Feb-24 08:32N 52°25' E 004°50'0 0.0
2017-Feb-24 07:32N 52°25' E 004°50'0 0.0
2017-Feb-24 06:32N 52°25' E 004°50'0 0.0
2017-Feb-24 05:32N 52°25' E 004°50'0 0.0
2017-Feb-24 04:32N 52°25' E 004°50'0 0.0
2017-Feb-24 03:32N 52°25' E 004°50'0 0.0
2017-Feb-24 02:32N 52°25' E 004°50'0 0.0
2017-Feb-24 01:32N 52°25' E 004°50'0 0.0
2017-Feb-24 00:29N 52°25' E 004°50'0 0.0
2017-Feb-23 23:29N 52°25' E 004°50'0 0.0
2017-Feb-23 22:32N 52°25' E 004°50'0 0.0
2017-Feb-23 21:33N 52°25' E 004°50'0 0.0
2017-Feb-23 20:28N 52°25' E 004°50'0 0.0
2017-Feb-23 19:33N 52°25' E 004°50'0 0.0
2017-Feb-23 18:27N 52°25' E 004°50'0 0.0
2017-Feb-23 17:33N 52°25' E 004°50'0 0.0
2017-Feb-23 16:34N 52°25' E 004°50'0 0.0
2017-Feb-23 15:31N 52°25' E 004°50'0 0.0
2017-Feb-23 14:34N 52°25' E 004°50'0 0.0
2017-Feb-23 13:33N 52°25' E 004°50'0 0.0
2017-Feb-23 12:27N 52°25' E 004°50'0 0.0
2017-Feb-23 11:34N 52°25' E 004°50'0 0.0
2017-Feb-23 10:33N 52°25' E 004°50'0 0.0
2017-Feb-23 09:19N 52°25' E 004°50'0 0.0
2017-Feb-23 08:19N 52°25' E 004°50'0 0.0
2017-Feb-23 07:33N 52°25' E 004°50'0 0.0
2017-Feb-23 06:33N 52°25' E 004°50'0 0.0
2017-Feb-23 05:34N 52°25' E 004°50'0 0.0
2017-Feb-23 04:33N 52°25' E 004°50'0 0.0
2017-Feb-23 03:27N 52°25' E 004°50'0 0.0
2017-Feb-23 02:34N 52°25' E 004°50'0 0.0
2017-Feb-23 01:31N 52°25' E 004°50'0 0.0
2017-Feb-23 00:34N 52°25' E 004°50'0 0.0
2017-Feb-22 23:27N 52°25' E 004°50'0 0.0
2017-Feb-22 22:31N 52°25' E 004°50'0 0.0
2017-Feb-22 21:27N 52°25' E 004°50'0 0.0
2017-Feb-22 20:31N 52°25' E 004°50'0 0.0
2017-Feb-22 19:31N 52°25' E 004°50'0 0.0
2017-Feb-22 18:33N 52°25' E 004°50'0 0.0
2017-Feb-22 17:20N 52°25' E 004°50'0 0.0
2017-Feb-22 16:32N 52°25' E 004°50'0 0.0
2017-Feb-22 15:29N 52°25' E 004°50'0 0.0
2017-Feb-22 14:32N 52°25' E 004°50'0 0.0
2017-Feb-22 13:32N 52°25' E 004°50'0 0.0
2017-Feb-22 12:23N 52°25' E 004°50'0 0.0
2017-Feb-22 11:32N 52°25' E 004°50'0 0.0
2017-Feb-22 10:32N 52°25' E 004°50'0 0.0
2017-Feb-22 09:32N 52°25' E 004°50'0 0.0
2017-Feb-22 08:32N 52°25' E 004°50'0 0.0
2017-Feb-22 07:26N 52°25' E 004°50'0 0.0
2017-Feb-22 06:26N 52°25' E 004°50'0 0.0
2017-Feb-22 05:23N 52°25' E 004°50'0 0.0
2017-Feb-22 04:29N 52°25' E 004°50'0 0.0
2017-Feb-22 03:32N 52°25' E 004°50'0 0.0
2017-Feb-22 02:26N 52°25' E 004°50'0 0.0
2017-Feb-22 01:33N 52°25' E 004°50'1 0.6
2017-Feb-22 00:33N 52°25' E 004°50'7 7.0
2017-Feb-21 23:33N 52°28' E 004°39'3 2.9
2017-Feb-21 22:33N 52°28' E 004°34'8 7.6
2017-Feb-21 21:33N 52°28' E 004°22'1010.5
2017-Feb-21 20:33N 52°28' E 004°05'5 2.3
2017-Feb-21 18:33N 52°26' E 003°58'0 0.0
2017-Feb-21 17:24N 52°26' E 003°58'0 0.0
2017-Feb-21 16:33N 52°26' E 003°58'0 0.1
2017-Feb-21 15:33N 52°26' E 003°58'0 0.1
2017-Feb-21 14:30N 52°26' E 003°58'0 0.0
2017-Feb-21 13:33N 52°26' E 003°58'0 0.0
2017-Feb-21 12:33N 52°26' E 003°58'0 0.0
2017-Feb-21 11:27N 52°27' E 003°58'0 0.0
2017-Feb-21 10:33N 52°27' E 003°58'0 0.0
2017-Feb-21 09:33N 52°26' E 003°58'0 0.1
2017-Feb-21 08:30N 52°26' E 003°58'0 0.1
2017-Feb-21 07:33N 52°26' E 003°58'0 0.0
2017-Feb-21 06:33N 52°26' E 003°58'0 0.1
2017-Feb-21 05:33N 52°26' E 003°58'0 0.0
2017-Feb-21 04:33N 52°26' E 003°58'0 0.0
2017-Feb-21 03:33N 52°26' E 003°58'0 0.1
2017-Feb-21 02:33N 52°26' E 003°58'0 0.0
2017-Feb-21 01:18N 52°26' E 003°58'0 0.0
2017-Feb-21 00:33N 52°26' E 003°58'0 0.0
2017-Feb-20 23:33N 52°26' E 003°58'0 0.0
2017-Feb-20 22:33N 52°27' E 003°58'0 0.0
2017-Feb-20 21:03N 52°27' E 003°58'0 0.0
2017-Feb-20 20:27N 52°26' E 003°58'0 0.0
2017-Feb-20 19:12N 52°26' E 003°58'0 0.0
2017-Feb-20 18:33N 52°26' E 003°58'0 0.0
2017-Feb-20 17:30N 52°26' E 003°58'0 0.0
2017-Feb-20 16:33N 52°26' E 003°58'0 0.0
2017-Feb-20 15:33N 52°26' E 003°58'0 0.0
2017-Feb-20 14:18N 52°26' E 003°58'0 0.0
2017-Feb-20 12:33N 52°26' E 003°58'0 0.0
2017-Feb-20 07:09N 52°26' E 003°58'0 0.0
2017-Feb-20 06:27N 52°26' E 003°58'0 0.0
2017-Feb-20 05:33N 52°26' E 003°58'0 0.2
2017-Feb-20 04:33N 52°26' E 003°58'0 0.1
2017-Feb-20 03:33N 52°26' E 003°58'0 0.1
2017-Feb-20 02:27N 52°26' E 003°58'0 0.2
2017-Feb-20 01:33N 52°26' E 003°58'0 0.0
2017-Feb-20 00:21N 52°26' E 003°58'0 0.0
2017-Feb-19 21:30N 52°27' E 003°58'0 0.0
2017-Feb-19 20:33N 52°27' E 003°58'0 0.0
2017-Feb-19 19:12N 52°26' E 003°58'0 0.0
2017-Feb-19 18:27N 52°26' E 003°58'0 0.2
2017-Feb-19 17:33N 52°26' E 003°58'0 0.1
2017-Feb-19 16:27N 52°26' E 003°58'0 0.0
2017-Feb-19 15:27N 52°26' E 003°58'0 0.0
2017-Feb-19 14:28N 52°26' E 003°58'0 0.1
2017-Feb-19 13:32N 52°26' E 003°58'0 0.2
2017-Feb-19 12:32N 52°26' E 003°58'0 0.0
2017-Feb-19 11:28N 52°26' E 003°58'0 0.0
2017-Feb-19 09:04N 52°27' E 003°58'0 0.0
2017-Feb-19 06:26N 52°27' E 003°58'0 0.0
2017-Feb-19 05:26N 52°27' E 003°58'0 0.1
2017-Feb-19 04:26N 52°26' E 003°58'0 0.2
2017-Feb-19 03:32N 52°26' E 003°58'0 0.0
2017-Feb-19 02:22N 52°26' E 003°58'0 0.0
2017-Feb-19 01:28N 52°26' E 003°58'0 0.2
2017-Feb-19 00:32N 52°26' E 003°58'0 0.1
2017-Feb-18 23:23N 52°27' E 003°58'0 0.0
2017-Feb-18 22:32N 52°27' E 003°58'0 0.0
2017-Feb-18 21:20N 52°27' E 003°58'0 0.0
2017-Feb-18 20:32N 52°27' E 003°58'0 0.0
2017-Feb-18 19:32N 52°27' E 003°58'0 0.0
2017-Feb-18 18:28N 52°27' E 003°58'0 0.0
2017-Feb-18 17:26N 52°27' E 003°58'0 0.1
2017-Feb-18 16:20N 52°26' E 003°58'0 0.1
2017-Feb-18 15:32N 52°26' E 003°58'0 0.0
2017-Feb-18 14:32N 52°26' E 003°58'0 0.0
2017-Feb-18 13:28N 52°26' E 003°58'0 0.1
2017-Feb-18 12:32N 52°26' E 003°58'0 0.1
2017-Feb-18 11:20N 52°27' E 003°58'0 0.0
2017-Feb-18 10:28N 52°27' E 003°58'0 0.0
2017-Feb-18 09:32N 52°27' E 003°58'0 0.0
2017-Feb-18 08:20N 52°27' E 003°58'0 0.0
2017-Feb-18 07:26N 52°27' E 003°58'0 0.0
2017-Feb-18 06:28N 52°27' E 003°58'0 0.0
2017-Feb-18 05:16N 52°27' E 003°58'0 0.2
2017-Feb-18 04:29N 52°26' E 003°58'0 0.0
2017-Feb-18 03:16N 52°26' E 003°58'  
Track history (hours):
 
Tides and Currents Weather Stations Pressure Air Temp Water Temp Dewpoint Dewpoint Depression Visibility Wind Speed Wind Dir Waves Ship Positions

Nina

Last reported at 2017-Feb-28 02:31 UTC. Time now 2017-Feb-28 03:27 UTC.
Position N 49°28' E 000°33'.

Length 180 m; draft 10.4 m.

Type: Tanker. MMSI: 247239700.

Date/timePositionNaut miles runAvg speedWind from/ knotsBaromVisibWave heightAir tempDewpointWater temp
2017-Feb-28 02:31N 49°28' E 000°33'0 0.0
2017-Feb-28 01:31N 49°28' E 000°33'0 0.0
2017-Feb-28 00:31N 49°28' E 000°33'0 0.0
2017-Feb-27 23:31N 49°28' E 000°33'0 0.0
2017-Feb-27 22:31N 49°28' E 000°33'0 0.0
2017-Feb-27 21:31N 49°28' E 000°33'0 0.0
2017-Feb-27 20:31N 49°28' E 000°33'0 0.0
2017-Feb-27 19:31N 49°28' E 000°33'0 0.0
2017-Feb-27 18:31N 49°28' E 000°33'0 0.0
2017-Feb-27 17:31N 49°28' E 000°33'0 0.0
2017-Feb-27 16:31N 49°28' E 000°33'0 0.0
2017-Feb-27 15:31N 49°28' E 000°33'0 0.0
2017-Feb-27 14:31N 49°28' E 000°33'0 0.0
2017-Feb-27 13:28N 49°28' E 000°33'0 0.0
2017-Feb-27 12:31N 49°28' E 000°33'0 0.0
2017-Feb-27 11:31N 49°28' E 000°33'0 0.0
2017-Feb-27 10:31N 49°28' E 000°33'0 0.0
2017-Feb-27 09:31N 49°28' E 000°33'0 0.0
2017-Feb-27 08:31N 49°28' E 000°33'0 0.0
2017-Feb-27 07:31N 49°28' E 000°33'0 0.0
2017-Feb-27 06:16N 49°28' E 000°33'0 0.0
2017-Feb-27 05:31N 49°28' E 000°33'0 0.0
2017-Feb-27 04:31N 49°28' E 000°33'0 0.0
2017-Feb-27 03:31N 49°28' E 000°33'0 0.0
2017-Feb-27 02:31N 49°28' E 000°33'0 0.0
2017-Feb-27 01:31N 49°28' E 000°33'0 0.0
2017-Feb-27 00:31N 49°28' E 000°33'0 0.0
2017-Feb-26 23:31N 49°28' E 000°33'0 0.0
2017-Feb-26 22:34N 49°28' E 000°33'1 1.4
2017-Feb-26 21:34N 49°29' E 000°31'1211.9
2017-Feb-26 20:33N 49°26' E 000°14'1211.6
2017-Feb-26 19:33N 49°29' W 000°04'5 4.7
2017-Feb-26 18:33N 49°30' W 000°11'1313.4
2017-Feb-26 17:34N 49°36' W 000°29'1413.8
2017-Feb-26 16:33N 49°45' W 000°46'1111.2
2017-Feb-26 15:33N 49°52' W 000°59'1111.4
2017-Feb-26 14:33N 49°58' W 000°44'5 1.5
2017-Feb-26 11:34N 50°01' W 000°49'1211.4
2017-Feb-26 10:28N 50°08' W 000°33'1010.0
2017-Feb-26 09:27N 50°18' W 000°28'1010.7
2017-Feb-26 08:33N 50°23' W 000°16'1110.8
2017-Feb-26 07:33N 50°28' W 000°00'1111.4
2017-Feb-26 06:33N 50°31' E 000°17'1312.8
2017-Feb-26 05:34N 50°37' E 000°35'1413.5
2017-Feb-26 04:34N 50°45' E 000°52'1313.3
2017-Feb-26 03:33N 50°53' E 001°09'1212.4
2017-Feb-26 02:34N 51°02' E 001°22'1110.8
2017-Feb-26 01:34N 51°08' E 001°36'10 9.9
2017-Feb-26 00:34N 51°16' E 001°46'1110.9
2017-Feb-25 23:34N 51°26' E 001°54'1211.8
2017-Feb-25 22:34N 51°35' E 002°06'8612.2
2017-Feb-25 15:34N 52°31' E 003°51'1211.9
2017-Feb-25 14:33N 52°31' E 004°10'1211.6
2017-Feb-25 13:34N 52°28' E 004°29'5 4.6
2017-Feb-25 12:31N 52°28' E 004°37'5 5.5
2017-Feb-25 11:33N 52°26' E 004°45'4 3.6
2017-Feb-25 10:32N 52°25' E 004°50'0 0.0
2017-Feb-25 09:32N 52°25' E 004°50'0 0.0
2017-Feb-25 08:32N 52°25' E 004°50'0 0.0
2017-Feb-25 07:32N 52°25' E 004°50'0 0.0
2017-Feb-25 06:29N 52°25' E 004°50'0 0.0
2017-Feb-25 05:29N 52°25' E 004°50'0 0.0
2017-Feb-25 04:29N 52°25' E 004°50'0 0.0
2017-Feb-25 03:29N 52°25' E 004°50'0 0.0
2017-Feb-25 02:29N 52°25' E 004°50'0 0.0
2017-Feb-25 01:32N 52°25' E 004°50'0 0.0
2017-Feb-25 00:32N 52°25' E 004°50'0 0.0
2017-Feb-24 23:23N 52°25' E 004°50'0 0.0
2017-Feb-24 22:29N 52°25' E 004°50'0 0.0
2017-Feb-24 21:32N 52°25' E 004°50'0 0.0
2017-Feb-24 20:32N 52°25' E 004°50'0 0.0
2017-Feb-24 19:29N 52°25' E 004°50'0 0.0
2017-Feb-24 18:32N 52°25' E 004°50'0 0.0
2017-Feb-24 17:29N 52°25' E 004°50'0 0.0
2017-Feb-24 16:29N 52°25' E 004°50'0 0.0
2017-Feb-24 15:32N 52°25' E 004°50'0 0.0
2017-Feb-24 14:23N 52°25' E 004°50'0 0.0
2017-Feb-24 13:32N 52°25' E 004°50'0 0.0
2017-Feb-24 12:32N 52°25' E 004°50'0 0.0
2017-Feb-24 11:26N 52°25' E 004°50'0 0.0
2017-Feb-24 10:26N 52°25' E 004°50'0 0.0
2017-Feb-24 09:32N 52°25' E 004°50'0 0.0
2017-Feb-24 08:32N 52°25' E 004°50'0 0.0
2017-Feb-24 07:32N 52°25' E 004°50'0 0.0
2017-Feb-24 06:32N 52°25' E 004°50'0 0.0
2017-Feb-24 05:32N 52°25' E 004°50'0 0.0
2017-Feb-24 04:32N 52°25' E 004°50'0 0.0
2017-Feb-24 03:32N 52°25' E 004°50'0 0.0
2017-Feb-24 02:32N 52°25' E 004°50'0 0.0
2017-Feb-24 01:32N 52°25' E 004°50'0 0.0
2017-Feb-24 00:29N 52°25' E 004°50'0 0.0
2017-Feb-23 23:29N 52°25' E 004°50'0 0.0
2017-Feb-23 22:32N 52°25' E 004°50'0 0.0
2017-Feb-23 21:33N 52°25' E 004°50'0 0.0
2017-Feb-23 20:28N 52°25' E 004°50'0 0.0
2017-Feb-23 19:33N 52°25' E 004°50'0 0.0
2017-Feb-23 18:27N 52°25' E 004°50'0 0.0
2017-Feb-23 17:33N 52°25' E 004°50'0 0.0
2017-Feb-23 16:34N 52°25' E 004°50'0 0.0
2017-Feb-23 15:31N 52°25' E 004°50'0 0.0
2017-Feb-23 14:34N 52°25' E 004°50'0 0.0
2017-Feb-23 13:33N 52°25' E 004°50'0 0.0
2017-Feb-23 12:27N 52°25' E 004°50'0 0.0
2017-Feb-23 11:34N 52°25' E 004°50'0 0.0
2017-Feb-23 10:33N 52°25' E 004°50'0 0.0
2017-Feb-23 09:19N 52°25' E 004°50'0 0.0
2017-Feb-23 08:19N 52°25' E 004°50'0 0.0
2017-Feb-23 07:33N 52°25' E 004°50'0 0.0
2017-Feb-23 06:33N 52°25' E 004°50'0 0.0
2017-Feb-23 05:34N 52°25' E 004°50'0 0.0
2017-Feb-23 04:33N 52°25' E 004°50'0 0.0
2017-Feb-23 03:27N 52°25' E 004°50'0 0.0
2017-Feb-23 02:34N 52°25' E 004°50'0 0.0
2017-Feb-23 01:31N 52°25' E 004°50'0 0.0
2017-Feb-23 00:34N 52°25' E 004°50'0 0.0
2017-Feb-22 23:27N 52°25' E 004°50'0 0.0
2017-Feb-22 22:31N 52°25' E 004°50'0 0.0
2017-Feb-22 21:27N 52°25' E 004°50'0 0.0
2017-Feb-22 20:31N 52°25' E 004°50'0 0.0
2017-Feb-22 19:31N 52°25' E 004°50'0 0.0
2017-Feb-22 18:33N 52°25' E 004°50'0 0.0
2017-Feb-22 17:20N 52°25' E 004°50'0 0.0
2017-Feb-22 16:32N 52°25' E 004°50'0 0.0
2017-Feb-22 15:29N 52°25' E 004°50'0 0.0
2017-Feb-22 14:32N 52°25' E 004°50'0 0.0
2017-Feb-22 13:32N 52°25' E 004°50'0 0.0
2017-Feb-22 12:23N 52°25' E 004°50'0 0.0
2017-Feb-22 11:32N 52°25' E 004°50'0 0.0
2017-Feb-22 10:32N 52°25' E 004°50'0 0.0
2017-Feb-22 09:32N 52°25' E 004°50'0 0.0
2017-Feb-22 08:32N 52°25' E 004°50'0 0.0
2017-Feb-22 07:26N 52°25' E 004°50'0 0.0
2017-Feb-22 06:26N 52°25' E 004°50'0 0.0
2017-Feb-22 05:23N 52°25' E 004°50'0 0.0
2017-Feb-22 04:29N 52°25' E 004°50'0 0.0
2017-Feb-22 03:32N 52°25' E 004°50'0 0.0
2017-Feb-22 02:26N 52°25' E 004°50'0 0.0
2017-Feb-22 01:33N 52°25' E 004°50'1 0.6
2017-Feb-22 00:33N 52°25' E 004°50'7 7.0
2017-Feb-21 23:33N 52°28' E 004°39'3 2.9
2017-Feb-21 22:33N 52°28' E 004°34'8 7.6
2017-Feb-21 21:33N 52°28' E 004°22'1010.5
2017-Feb-21 20:33N 52°28' E 004°05'5 2.3
2017-Feb-21 18:33N 52°26' E 003°58'0 0.0
2017-Feb-21 17:24N 52°26' E 003°58'0 0.0
2017-Feb-21 16:33N 52°26' E 003°58'0 0.1
2017-Feb-21 15:33N 52°26' E 003°58'0 0.1
2017-Feb-21 14:30N 52°26' E 003°58'0 0.0
2017-Feb-21 13:33N 52°26' E 003°58'0 0.0
2017-Feb-21 12:33N 52°26' E 003°58'0 0.0
2017-Feb-21 11:27N 52°27' E 003°58'0 0.0
2017-Feb-21 10:33N 52°27' E 003°58'0 0.0
2017-Feb-21 09:33N 52°26' E 003°58'0 0.1
2017-Feb-21 08:30N 52°26' E 003°58'0 0.1
2017-Feb-21 07:33N 52°26' E 003°58'0 0.0
2017-Feb-21 06:33N 52°26' E 003°58'0 0.1
2017-Feb-21 05:33N 52°26' E 003°58'0 0.0
2017-Feb-21 04:33N 52°26' E 003°58'0 0.0
2017-Feb-21 03:33N 52°26' E 003°58'0 0.1
2017-Feb-21 02:33N 52°26' E 003°58'0 0.0
2017-Feb-21 01:18N 52°26' E 003°58'0 0.0
2017-Feb-21 00:33N 52°26' E 003°58'0 0.0
2017-Feb-20 23:33N 52°26' E 003°58'0 0.0
2017-Feb-20 22:33N 52°27' E 003°58'0 0.0
2017-Feb-20 21:03N 52°27' E 003°58'0 0.0
2017-Feb-20 20:27N 52°26' E 003°58'0 0.0
2017-Feb-20 19:12N 52°26' E 003°58'0 0.0
2017-Feb-20 18:33N 52°26' E 003°58'0 0.0
2017-Feb-20 17:30N 52°26' E 003°58'0 0.0
2017-Feb-20 16:33N 52°26' E 003°58'0 0.0
2017-Feb-20 15:33N 52°26' E 003°58'0 0.0
2017-Feb-20 14:18N 52°26' E 003°58'0 0.0
2017-Feb-20 12:33N 52°26' E 003°58'0 0.0
2017-Feb-20 07:09N 52°26' E 003°58'0 0.0
2017-Feb-20 06:27N 52°26' E 003°58'0 0.0
2017-Feb-20 05:33N 52°26' E 003°58'0 0.2
2017-Feb-20 04:33N 52°26' E 003°58'0 0.1
2017-Feb-20 03:33N 52°26' E 003°58'0 0.1
2017-Feb-20 02:27N 52°26' E 003°58'0 0.2
2017-Feb-20 01:33N 52°26' E 003°58'0 0.0
2017-Feb-20 00:21N 52°26' E 003°58'0 0.0
2017-Feb-19 21:30N 52°27' E 003°58'0 0.0
2017-Feb-19 20:33N 52°27' E 003°58'0 0.0
2017-Feb-19 19:12N 52°26' E 003°58'0 0.0
2017-Feb-19 18:27N 52°26' E 003°58'0 0.2
2017-Feb-19 17:33N 52°26' E 003°58'0 0.1
2017-Feb-19 16:27N 52°26' E 003°58'0 0.0
2017-Feb-19 15:27N 52°26' E 003°58'0 0.0
2017-Feb-19 14:28N 52°26' E 003°58'0 0.1
2017-Feb-19 13:32N 52°26' E 003°58'0 0.2
2017-Feb-19 12:32N 52°26' E 003°58'0 0.0
2017-Feb-19 11:28N 52°26' E 003°58'0 0.0
2017-Feb-19 09:04N 52°27' E 003°58'0 0.0
2017-Feb-19 06:26N 52°27' E 003°58'0 0.0
2017-Feb-19 05:26N 52°27' E 003°58'0 0.1
2017-Feb-19 04:26N 52°26' E 003°58'0 0.2
2017-Feb-19 03:32N 52°26' E 003°58'0 0.0
2017-Feb-19 02:22N 52°26' E 003°58'0 0.0
2017-Feb-19 01:28N 52°26' E 003°58'0 0.2
2017-Feb-19 00:32N 52°26' E 003°58'0 0.1
2017-Feb-18 23:23N 52°27' E 003°58'0 0.0
2017-Feb-18 22:32N 52°27' E 003°58'0 0.0
2017-Feb-18 21:20N 52°27' E 003°58'0 0.0
2017-Feb-18 20:32N 52°27' E 003°58'0 0.0
2017-Feb-18 19:32N 52°27' E 003°58'0 0.0
2017-Feb-18 18:28N 52°27' E 003°58'0 0.0
2017-Feb-18 17:26N 52°27' E 003°58'0 0.1
2017-Feb-18 16:20N 52°26' E 003°58'0 0.1
2017-Feb-18 15:32N 52°26' E 003°58'0 0.0
2017-Feb-18 14:32N 52°26' E 003°58'0 0.0
2017-Feb-18 13:28N 52°26' E 003°58'0 0.1
2017-Feb-18 12:32N 52°26' E 003°58'0 0.1
2017-Feb-18 11:20N 52°27' E 003°58'0 0.0
2017-Feb-18 10:28N 52°27' E 003°58'0 0.0
2017-Feb-18 09:32N 52°27' E 003°58'0 0.0
2017-Feb-18 08:20N 52°27' E 003°58'0 0.0
2017-Feb-18 07:26N 52°27' E 003°58'0 0.0
2017-Feb-18 06:28N 52°27' E 003°58'0 0.0
2017-Feb-18 05:16N 52°27' E 003°58'0 0.2
2017-Feb-18 04:29N 52°26' E 003°58'0 0.0
2017-Feb-18 03:16N 52°26' E 003°58'  

Dump ship's entire track history